Anstey, United Kingdom
Current Conditions -  °F | °C
As of 1:20 PM on Sunday 23 Nov 2014 (Local Time) from EGNX Reporting Station
Few Clouds Few Clouds  
Wind Chill:   Ceiling: Unl
Heat Index:   Visibility: 5mi
Dew Point:   Wind: 8mph
Humidity: 93%   Direction: 270°W
Pressure: 30.03"   Gusts: NA
Location:  52.65°N, 1.18°W
Report Text: EGNX 231320Z 27007KT 8000 FEW016 08/07 Q1017
Loading
Personal Weather Stations






























Interactive Weather Map New forecast layout! Learn more

10-Day Weather Forecast

Advertisements
Track Severe Weather on mobile